Airfield :
LOGIN :

Register | Disclaimer

   EN    FR    IT 

 










Legend :    VFR   Marginal VFR   IFR   Intensive IFR   Very Intensive IFR
Visi :
Ceiling :
>= 8 km
>= 3000ft
5 to 8 km
1000 to 3000 ft
1500m to 5 km
500 to 1000 ft
800 to 1500m
200 to 500 ft
< 800m
< 200 ft
Symbols :   Thunderstorms  Fog  Heavy snow  Heavy precipitations  Wind > 20 kt
SIGMETs :     Misc.  Thunderstorms  Icing  Turbulence  Mountain Waves  Volcanic Ashes







- Airport Elevation : 240 ft
- IATA code : VLC


LEVC - Valencia Manises

CURRENT METAR :
  • 200130Z VRB02KT 9999 FEW023 18/15 Q1021 NOSIG

EXPIRED METARs :
  • 200100Z 33007KT 9999 FEW023 18/16 Q1021 NOSIG
  • 200030Z 33007KT 9999 FEW023 19/16 Q1021 NOSIG
  • 200000Z 33007KT 9999 FEW023 19/16 Q1021 NOSIG
  • 192330Z 33007KT 9999 FEW023 19/16 Q1021 NOSIG
  • 192300Z 33007KT 280V350 9999 FEW023 19/16 Q1021 NOSIG

TAF TAF LEVC
Valid from the 20 at 00:00 until the 21 at 00:00 UTC


192300Z 2000/2024 VRB04KT 9999 FEW040 TX27/2013Z TN16/2006Z
TEMPO 2000/2010 BKN014
BECMG 2008/2011 11010KT
BECMG 2018/2021 VRB03KT
No reported NOTAMs for that airfield.



MET'MAP, your aeronautical weather chart ! - Copyright ORBIFLY December 2007 - Disclaimer

ORBIFLY MET'MAP TEAM :

Programming & Development : Alexandra Zaïnal
Concept & Development : Baudouin d'Aumeries
Co-Development & Prog : Marc-Olivier Méhu
Technical & hardware support : Manuel Goepfert

Contact : metmap@orbifly.com




SOURCES & CREDITS :

   NOAA